sensor_id;sensor_type;location;lat;lon;timestamp;P1;durP1;ratioP1;P2;durP2;ratioP2
1693;SDS011;844;47.058;15.472;2023-02-04T00:00:50;5.50;;;4.73;;
1693;SDS011;844;47.058;15.472;2023-02-04T00:03:20;9.97;;;7.00;;
1693;SDS011;844;47.058;15.472;2023-02-04T00:05:50;5.93;;;5.43;;
1693;SDS011;844;47.058;15.472;2023-02-04T00:08:21;5.47;;;5.00;;
1693;SDS011;844;47.058;15.472;2023-02-04T00:10:51;6.37;;;4.60;;
1693;SDS011;844;47.058;15.472;2023-02-04T00:13:21;6.93;;;3.97;;
1693;SDS011;844;47.058;15.472;2023-02-04T00:15:53;9.03;;;5.80;;
1693;SDS011;844;47.058;15.472;2023-02-04T00:18:23;5.20;;;4.00;;
1693;SDS011;844;47.058;15.472;2023-02-04T00:20:53;4.27;;;3.40;;
1693;SDS011;844;47.058;15.472;2023-02-04T00:23:23;9.83;;;4.43;;
1693;SDS011;844;47.058;15.472;2023-02-04T00:25:53;3.50;;;3.20;;
1693;SDS011;844;47.058;15.472;2023-02-04T00:28:23;3.60;;;3.30;;
1693;SDS011;844;47.058;15.472;2023-02-04T00:30:56;4.50;;;3.83;;
1693;SDS011;844;47.058;15.472;2023-02-04T00:33:26;4.50;;;3.63;;
1693;SDS011;844;47.058;15.472;2023-02-04T00:35:57;4.70;;;3.43;;
1693;SDS011;844;47.058;15.472;2023-02-04T00:38:27;4.83;;;3.40;;
1693;SDS011;844;47.058;15.472;2023-02-04T00:40:57;4.00;;;3.10;;
1693;SDS011;844;47.058;15.472;2023-02-04T00:43:27;5.90;;;3.97;;
1693;SDS011;844;47.058;15.472;2023-02-04T00:45:59;4.40;;;3.10;;
1693;SDS011;844;47.058;15.472;2023-02-04T00:48:29;4.20;;;3.80;;
1693;SDS011;844;47.058;15.472;2023-02-04T00:51:00;5.80;;;3.20;;
1693;SDS011;844;47.058;15.472;2023-02-04T00:53:31;4.93;;;2.80;;
1693;SDS011;844;47.058;15.472;2023-02-04T00:56:02;3.13;;;2.83;;
1693;SDS011;844;47.058;15.472;2023-02-04T00:58:32;4.00;;;2.80;;
1693;SDS011;844;47.058;15.472;2023-02-04T01:01:05;2.77;;;1.97;;
1693;SDS011;844;47.058;15.472;2023-02-04T01:03:35;2.13;;;1.67;;
1693;SDS011;844;47.058;15.472;2023-02-04T01:06:05;8.20;;;1.87;;
1693;SDS011;844;47.058;15.472;2023-02-04T01:08:36;1.60;;;1.20;;
1693;SDS011;844;47.058;15.472;2023-02-04T01:11:06;1.23;;;0.73;;
1693;SDS011;844;47.058;15.472;2023-02-04T01:13:37;2.20;;;1.33;;
1693;SDS011;844;47.058;15.472;2023-02-04T01:16:09;1.63;;;1.13;;
1693;SDS011;844;47.058;15.472;2023-02-04T01:18:39;1.23;;;0.80;;
1693;SDS011;844;47.058;15.472;2023-02-04T01:21:10;1.37;;;0.73;;
1693;SDS011;844;47.058;15.472;2023-02-04T01:23:41;1.37;;;1.00;;
1693;SDS011;844;47.058;15.472;2023-02-04T01:26:11;1.57;;;0.70;;
1693;SDS011;844;47.058;15.472;2023-02-04T01:28:41;2.93;;;1.10;;
1693;SDS011;844;47.058;15.472;2023-02-04T01:31:13;1.10;;;0.50;;
1693;SDS011;844;47.058;15.472;2023-02-04T01:33:44;0.60;;;0.37;;
1693;SDS011;844;47.058;15.472;2023-02-04T01:36:14;0.60;;;0.30;;
1693;SDS011;844;47.058;15.472;2023-02-04T01:38:48;0.60;;;0.40;;
1693;SDS011;844;47.058;15.472;2023-02-04T01:41:19;0.70;;;0.40;;
1693;SDS011;844;47.058;15.472;2023-02-04T01:43:48;0.60;;;0.30;;
1693;SDS011;844;47.058;15.472;2023-02-04T01:46:21;0.70;;;0.30;;
1693;SDS011;844;47.058;15.472;2023-02-04T01:48:51;0.80;;;0.40;;
1693;SDS011;844;47.058;15.472;2023-02-04T01:51:23;0.70;;;0.33;;
1693;SDS011;844;47.058;15.472;2023-02-04T01:53:56;0.70;;;0.37;;
1693;SDS011;844;47.058;15.472;2023-02-04T01:56:28;0.60;;;0.30;;
1693;SDS011;844;47.058;15.472;2023-02-04T01:58:59;0.70;;;0.40;;
1693;SDS011;844;47.058;15.472;2023-02-04T02:01:36;0.60;;;0.30;;
1693;SDS011;844;47.058;15.472;2023-02-04T02:04:09;0.80;;;0.40;;
1693;SDS011;844;47.058;15.472;2023-02-04T02:06:41;0.93;;;0.50;;
1693;SDS011;844;47.058;15.472;2023-02-04T02:09:13;0.50;;;0.30;;
1693;SDS011;844;47.058;15.472;2023-02-04T02:11:43;0.60;;;0.30;;
1693;SDS011;844;47.058;15.472;2023-02-04T02:14:13;0.73;;;0.40;;
1693;SDS011;844;47.058;15.472;2023-02-04T02:16:46;0.57;;;0.30;;
1693;SDS011;844;47.058;15.472;2023-02-04T02:19:18;0.70;;;0.30;;
1693;SDS011;844;47.058;15.472;2023-02-04T02:21:52;0.50;;;0.30;;
1693;SDS011;844;47.058;15.472;2023-02-04T02:24:27;0.50;;;0.30;;
1693;SDS011;844;47.058;15.472;2023-02-04T02:26:59;0.60;;;0.53;;
1693;SDS011;844;47.058;15.472;2023-02-04T02:29:31;1.83;;;0.53;;
1693;SDS011;844;47.058;15.472;2023-02-04T02:32:02;0.50;;;0.30;;
1693;SDS011;844;47.058;15.472;2023-02-04T02:34:32;0.60;;;0.30;;
1693;SDS011;844;47.058;15.472;2023-02-04T02:37:03;0.90;;;0.37;;
1693;SDS011;844;47.058;15.472;2023-02-04T02:39:35;1.13;;;0.40;;
1693;SDS011;844;47.058;15.472;2023-02-04T02:42:06;0.87;;;0.40;;
1693;SDS011;844;47.058;15.472;2023-02-04T02:44:37;1.00;;;0.43;;
1693;SDS011;844;47.058;15.472;2023-02-04T02:47:10;0.60;;;0.30;;
1693;SDS011;844;47.058;15.472;2023-02-04T02:49:42;0.50;;;0.30;;
1693;SDS011;844;47.058;15.472;2023-02-04T02:52:13;0.60;;;0.30;;
1693;SDS011;844;47.058;15.472;2023-02-04T02:54:45;1.43;;;0.40;;
1693;SDS011;844;47.058;15.472;2023-02-04T02:57:16;0.70;;;0.30;;
1693;SDS011;844;47.058;15.472;2023-02-04T02:59:49;0.70;;;0.30;;
1693;SDS011;844;47.058;15.472;2023-02-04T03:02:19;0.90;;;0.30;;
1693;SDS011;844;47.058;15.472;2023-02-04T03:04:51;0.60;;;0.30;;
1693;SDS011;844;47.058;15.472;2023-02-04T03:07:23;0.67;;;0.37;;
1693;SDS011;844;47.058;15.472;2023-02-04T03:09:56;0.60;;;0.30;;
1693;SDS011;844;47.058;15.472;2023-02-04T03:12:26;0.73;;;0.33;;
1693;SDS011;844;47.058;15.472;2023-02-04T03:14:57;0.90;;;0.33;;
1693;SDS011;844;47.058;15.472;2023-02-04T03:17:28;0.80;;;0.40;;
1693;SDS011;844;47.058;15.472;2023-02-04T03:19:59;0.50;;;0.20;;
1693;SDS011;844;47.058;15.472;2023-02-04T03:22:30;1.70;;;0.30;;
1693;SDS011;844;47.058;15.472;2023-02-04T03:25:01;0.80;;;0.30;;
1693;SDS011;844;47.058;15.472;2023-02-04T03:27:32;0.60;;;0.30;;
1693;SDS011;844;47.058;15.472;2023-02-04T03:30:02;0.50;;;0.30;;
1693;SDS011;844;47.058;15.472;2023-02-04T03:32:35;0.60;;;0.30;;
1693;SDS011;844;47.058;15.472;2023-02-04T03:35:05;0.60;;;0.27;;
1693;SDS011;844;47.058;15.472;2023-02-04T03:37:35;0.50;;;0.30;;
1693;SDS011;844;47.058;15.472;2023-02-04T03:40:08;0.60;;;0.30;;
1693;SDS011;844;47.058;15.472;2023-02-04T03:42:39;0.60;;;0.30;;
1693;SDS011;844;47.058;15.472;2023-02-04T03:45:09;0.50;;;0.30;;
1693;SDS011;844;47.058;15.472;2023-02-04T03:47:40;0.90;;;0.50;;
1693;SDS011;844;47.058;15.472;2023-02-04T03:50:10;0.87;;;0.30;;
1693;SDS011;844;47.058;15.472;2023-02-04T03:52:40;0.50;;;0.20;;
1693;SDS011;844;47.058;15.472;2023-02-04T03:55:13;0.80;;;0.40;;
1693;SDS011;844;47.058;15.472;2023-02-04T03:57:42;0.60;;;0.30;;
1693;SDS011;844;47.058;15.472;2023-02-04T04:00:13;0.60;;;0.30;;
1693;SDS011;844;47.058;15.472;2023-02-04T04:02:43;0.83;;;0.30;;
1693;SDS011;844;47.058;15.472;2023-02-04T04:05:14;0.50;;;0.30;;
1693;SDS011;844;47.058;15.472;2023-02-04T04:07:45;0.50;;;0.30;;
1693;SDS011;844;47.058;15.472;2023-02-04T04:10:16;0.60;;;0.30;;
1693;SDS011;844;47.058;15.472;2023-02-04T04:12:46;0.50;;;0.20;;
1693;SDS011;844;47.058;15.472;2023-02-04T04:15:17;0.50;;;0.30;;
1693;SDS011;844;47.058;15.472;2023-02-04T04:17:47;1.00;;;0.40;;
1693;SDS011;844;47.058;15.472;2023-02-04T04:20:17;1.83;;;0.50;;
1693;SDS011;844;47.058;15.472;2023-02-04T04:22:51;2.27;;;0.40;;
1693;SDS011;844;47.058;15.472;2023-02-04T04:25:23;0.50;;;0.20;;
1693;SDS011;844;47.058;15.472;2023-02-04T04:27:53;0.50;;;0.30;;
1693;SDS011;844;47.058;15.472;2023-02-04T04:30:23;0.50;;;0.20;;
1693;SDS011;844;47.058;15.472;2023-02-04T04:32:53;0.60;;;0.40;;
1693;SDS011;844;47.058;15.472;2023-02-04T04:35:24;0.80;;;0.40;;
1693;SDS011;844;47.058;15.472;2023-02-04T04:37:54;0.70;;;0.30;;
1693;SDS011;844;47.058;15.472;2023-02-04T04:40:25;0.70;;;0.40;;
1693;SDS011;844;47.058;15.472;2023-02-04T04:42:56;0.50;;;0.20;;
1693;SDS011;844;47.058;15.472;2023-02-04T04:45:26;0.63;;;0.30;;
1693;SDS011;844;47.058;15.472;2023-02-04T04:47:57;1.10;;;0.43;;
1693;SDS011;844;47.058;15.472;2023-02-04T04:50:27;0.50;;;0.30;;
1693;SDS011;844;47.058;15.472;2023-02-04T04:52:58;0.60;;;0.40;;
1693;SDS011;844;47.058;15.472;2023-02-04T04:55:29;0.60;;;0.40;;
1693;SDS011;844;47.058;15.472;2023-02-04T04:58:01;0.70;;;0.40;;
1693;SDS011;844;47.058;15.472;2023-02-04T05:00:31;0.60;;;0.30;;
1693;SDS011;844;47.058;15.472;2023-02-04T05:03:01;0.70;;;0.37;;
1693;SDS011;844;47.058;15.472;2023-02-04T05:05:31;0.90;;;0.30;;
1693;SDS011;844;47.058;15.472;2023-02-04T05:08:06;0.60;;;0.30;;
1693;SDS011;844;47.058;15.472;2023-02-04T05:10:40;0.90;;;0.30;;
1693;SDS011;844;47.058;15.472;2023-02-04T05:13:10;0.50;;;0.30;;
1693;SDS011;844;47.058;15.472;2023-02-04T05:15:40;0.60;;;0.30;;
1693;SDS011;844;47.058;15.472;2023-02-04T05:18:11;0.50;;;0.30;;
1693;SDS011;844;47.058;15.472;2023-02-04T05:20:41;0.60;;;0.30;;
1693;SDS011;844;47.058;15.472;2023-02-04T05:23:12;0.50;;;0.30;;
1693;SDS011;844;47.058;15.472;2023-02-04T05:25:45;0.50;;;0.30;;
1693;SDS011;844;47.058;15.472;2023-02-04T05:28:15;0.90;;;0.40;;
1693;SDS011;844;47.058;15.472;2023-02-04T05:30:47;1.03;;;0.50;;
1693;SDS011;844;47.058;15.472;2023-02-04T05:33:17;0.80;;;0.40;;
1693;SDS011;844;47.058;15.472;2023-02-04T05:35:48;1.10;;;0.40;;
1693;SDS011;844;47.058;15.472;2023-02-04T05:38:18;0.70;;;0.30;;
1693;SDS011;844;47.058;15.472;2023-02-04T05:40:50;1.23;;;0.47;;
1693;SDS011;844;47.058;15.472;2023-02-04T05:43:20;0.60;;;0.30;;
1693;SDS011;844;47.058;15.472;2023-02-04T05:45:51;0.50;;;0.30;;
1693;SDS011;844;47.058;15.472;2023-02-04T05:48:21;0.70;;;0.40;;
1693;SDS011;844;47.058;15.472;2023-02-04T05:50:52;0.57;;;0.33;;
1693;SDS011;844;47.058;15.472;2023-02-04T05:53:22;0.50;;;0.30;;
1693;SDS011;844;47.058;15.472;2023-02-04T05:55:55;0.50;;;0.30;;
1693;SDS011;844;47.058;15.472;2023-02-04T05:58:25;0.60;;;0.33;;
1693;SDS011;844;47.058;15.472;2023-02-04T06:01:00;0.63;;;0.47;;
1693;SDS011;844;47.058;15.472;2023-02-04T06:03:32;0.60;;;0.40;;
1693;SDS011;844;47.058;15.472;2023-02-04T06:06:02;0.73;;;0.47;;
1693;SDS011;844;47.058;15.472;2023-02-04T06:08:33;0.80;;;0.50;;
1693;SDS011;844;47.058;15.472;2023-02-04T06:11:05;1.30;;;0.53;;
1693;SDS011;844;47.058;15.472;2023-02-04T06:13:35;1.20;;;0.60;;
1693;SDS011;844;47.058;15.472;2023-02-04T06:16:06;1.90;;;0.30;;
1693;SDS011;844;47.058;15.472;2023-02-04T06:18:36;0.60;;;0.30;;
1693;SDS011;844;47.058;15.472;2023-02-04T06:21:08;0.70;;;0.40;;
1693;SDS011;844;47.058;15.472;2023-02-04T06:23:38;0.50;;;0.30;;
1693;SDS011;844;47.058;15.472;2023-02-04T06:26:11;0.60;;;0.30;;
1693;SDS011;844;47.058;15.472;2023-02-04T06:28:41;3.77;;;0.53;;
1693;SDS011;844;47.058;15.472;2023-02-04T06:31:12;0.60;;;0.30;;
1693;SDS011;844;47.058;15.472;2023-02-04T06:33:43;4.00;;;0.33;;
1693;SDS011;844;47.058;15.472;2023-02-04T06:36:13;0.87;;;0.50;;
1693;SDS011;844;47.058;15.472;2023-02-04T06:38:43;0.60;;;0.30;;
1693;SDS011;844;47.058;15.472;2023-02-04T06:41:15;1.47;;;0.97;;
1693;SDS011;844;47.058;15.472;2023-02-04T06:43:46;0.60;;;0.30;;
1693;SDS011;844;47.058;15.472;2023-02-04T06:46:16;0.90;;;0.50;;
1693;SDS011;844;47.058;15.472;2023-02-04T06:48:47;1.00;;;0.50;;
1693;SDS011;844;47.058;15.472;2023-02-04T06:51:18;1.23;;;0.40;;
1693;SDS011;844;47.058;15.472;2023-02-04T06:53:47;0.73;;;0.40;;
1693;SDS011;844;47.058;15.472;2023-02-04T06:56:20;0.73;;;0.43;;
1693;SDS011;844;47.058;15.472;2023-02-04T06:58:49;0.63;;;0.40;;
1693;SDS011;844;47.058;15.472;2023-02-04T07:01:19;0.60;;;0.40;;
1693;SDS011;844;47.058;15.472;2023-02-04T07:03:50;1.27;;;0.60;;
1693;SDS011;844;47.058;15.472;2023-02-04T07:06:20;0.60;;;0.30;;
1693;SDS011;844;47.058;15.472;2023-02-04T07:08:51;1.00;;;0.40;;
1693;SDS011;844;47.058;15.472;2023-02-04T07:11:24;1.70;;;0.43;;
1693;SDS011;844;47.058;15.472;2023-02-04T07:13:55;1.47;;;0.40;;
1693;SDS011;844;47.058;15.472;2023-02-04T07:16:26;1.20;;;0.40;;
1693;SDS011;844;47.058;15.472;2023-02-04T07:18:57;0.77;;;0.33;;
1693;SDS011;844;47.058;15.472;2023-02-04T07:21:27;1.07;;;0.40;;
1693;SDS011;844;47.058;15.472;2023-02-04T07:23:57;0.60;;;0.30;;
1693;SDS011;844;47.058;15.472;2023-02-04T07:26:30;0.63;;;0.30;;
1693;SDS011;844;47.058;15.472;2023-02-04T07:29:01;0.80;;;0.63;;
1693;SDS011;844;47.058;15.472;2023-02-04T07:31:38;2.10;;;0.60;;
1693;SDS011;844;47.058;15.472;2023-02-04T07:34:09;0.77;;;0.40;;
1693;SDS011;844;47.058;15.472;2023-02-04T07:36:41;0.77;;;0.60;;
1693;SDS011;844;47.058;15.472;2023-02-04T07:39:12;0.80;;;0.40;;
1693;SDS011;844;47.058;15.472;2023-02-04T07:41:44;4.33;;;0.40;;
1693;SDS011;844;47.058;15.472;2023-02-04T07:44:15;0.80;;;0.33;;
1693;SDS011;844;47.058;15.472;2023-02-04T07:46:44;3.13;;;0.40;;
1693;SDS011;844;47.058;15.472;2023-02-04T07:49:15;0.70;;;0.30;;
1693;SDS011;844;47.058;15.472;2023-02-04T07:51:45;0.97;;;0.40;;
1693;SDS011;844;47.058;15.472;2023-02-04T07:54:18;1.10;;;0.60;;
1693;SDS011;844;47.058;15.472;2023-02-04T07:56:51;0.90;;;0.50;;
1693;SDS011;844;47.058;15.472;2023-02-04T07:59:21;0.80;;;0.47;;
1693;SDS011;844;47.058;15.472;2023-02-04T08:01:51;0.70;;;0.40;;
1693;SDS011;844;47.058;15.472;2023-02-04T08:04:22;1.90;;;1.50;;
1693;SDS011;844;47.058;15.472;2023-02-04T08:06:52;0.70;;;0.50;;
1693;SDS011;844;47.058;15.472;2023-02-04T08:09:23;0.90;;;0.60;;
1693;SDS011;844;47.058;15.472;2023-02-04T08:11:55;0.50;;;0.30;;
1693;SDS011;844;47.058;15.472;2023-02-04T08:14:27;1.33;;;0.53;;
1693;SDS011;844;47.058;15.472;2023-02-04T08:16:58;0.73;;;0.53;;
1693;SDS011;844;47.058;15.472;2023-02-04T08:19:31;0.90;;;0.50;;
1693;SDS011;844;47.058;15.472;2023-02-04T08:22:01;0.93;;;0.50;;
1693;SDS011;844;47.058;15.472;2023-02-04T08:24:31;1.10;;;0.60;;
1693;SDS011;844;47.058;15.472;2023-02-04T08:27:03;0.87;;;0.70;;
1693;SDS011;844;47.058;15.472;2023-02-04T08:29:33;1.10;;;0.60;;
1693;SDS011;844;47.058;15.472;2023-02-04T08:32:04;0.80;;;0.63;;
1693;SDS011;844;47.058;15.472;2023-02-04T08:34:36;2.10;;;0.60;;
1693;SDS011;844;47.058;15.472;2023-02-04T08:37:07;0.60;;;0.40;;
1693;SDS011;844;47.058;15.472;2023-02-04T08:39:36;1.37;;;0.73;;
1693;SDS011;844;47.058;15.472;2023-02-04T08:42:12;1.10;;;0.87;;
1693;SDS011;844;47.058;15.472;2023-02-04T08:44:42;1.33;;;0.53;;
1693;SDS011;844;47.058;15.472;2023-02-04T08:47:12;2.00;;;0.50;;
1693;SDS011;844;47.058;15.472;2023-02-04T08:49:42;0.80;;;0.63;;
1693;SDS011;844;47.058;15.472;2023-02-04T08:52:13;0.50;;;0.30;;
1693;SDS011;844;47.058;15.472;2023-02-04T08:54:44;0.87;;;0.50;;
1693;SDS011;844;47.058;15.472;2023-02-04T08:57:17;1.10;;;0.70;;
1693;SDS011;844;47.058;15.472;2023-02-04T08:59:49;0.60;;;0.30;;
1693;SDS011;844;47.058;15.472;2023-02-04T09:02:19;0.83;;;0.37;;
1693;SDS011;844;47.058;15.472;2023-02-04T09:04:49;0.70;;;0.43;;
1693;SDS011;844;47.058;15.472;2023-02-04T09:07:20;0.97;;;0.50;;
1693;SDS011;844;47.058;15.472;2023-02-04T09:09:50;0.77;;;0.53;;
1693;SDS011;844;47.058;15.472;2023-02-04T09:12:22;1.17;;;0.70;;
1693;SDS011;844;47.058;15.472;2023-02-04T09:14:53;0.70;;;0.40;;
1693;SDS011;844;47.058;15.472;2023-02-04T09:17:24;1.17;;;0.90;;
1693;SDS011;844;47.058;15.472;2023-02-04T09:19:55;0.70;;;0.50;;
1693;SDS011;844;47.058;15.472;2023-02-04T09:22:24;0.90;;;0.50;;
1693;SDS011;844;47.058;15.472;2023-02-04T09:24:54;1.03;;;0.57;;
1693;SDS011;844;47.058;15.472;2023-02-04T09:27:25;0.60;;;0.40;;
1693;SDS011;844;47.058;15.472;2023-02-04T09:29:55;1.83;;;0.60;;
1693;SDS011;844;47.058;15.472;2023-02-04T09:32:26;0.70;;;0.40;;
1693;SDS011;844;47.058;15.472;2023-02-04T09:34:55;1.73;;;0.83;;
1693;SDS011;844;47.058;15.472;2023-02-04T09:37:25;0.87;;;0.60;;
1693;SDS011;844;47.058;15.472;2023-02-04T09:39:55;0.80;;;0.50;;
1693;SDS011;844;47.058;15.472;2023-02-04T09:42:27;0.77;;;0.70;;
1693;SDS011;844;47.058;15.472;2023-02-04T09:44:59;2.20;;;0.97;;
1693;SDS011;844;47.058;15.472;2023-02-04T09:47:29;1.90;;;1.27;;
1693;SDS011;844;47.058;15.472;2023-02-04T09:50:01;1.17;;;0.60;;
1693;SDS011;844;47.058;15.472;2023-02-04T09:52:31;0.93;;;0.40;;
1693;SDS011;844;47.058;15.472;2023-02-04T09:55:04;1.40;;;0.90;;
1693;SDS011;844;47.058;15.472;2023-02-04T09:57:38;1.07;;;0.70;;
1693;SDS011;844;47.058;15.472;2023-02-04T10:00:14;1.77;;;0.57;;
1693;SDS011;844;47.058;15.472;2023-02-04T10:02:46;0.70;;;0.50;;
1693;SDS011;844;47.058;15.472;2023-02-04T10:05:17;0.80;;;0.37;;
1693;SDS011;844;47.058;15.472;2023-02-04T10:07:49;1.47;;;0.50;;
1693;SDS011;844;47.058;15.472;2023-02-04T10:10:21;1.03;;;0.63;;
1693;SDS011;844;47.058;15.472;2023-02-04T10:12:57;0.80;;;0.50;;
1693;SDS011;844;47.058;15.472;2023-02-04T10:15:30;1.37;;;0.83;;
1693;SDS011;844;47.058;15.472;2023-02-04T10:18:01;0.80;;;0.50;;
1693;SDS011;844;47.058;15.472;2023-02-04T10:20:33;1.13;;;0.60;;
1693;SDS011;844;47.058;15.472;2023-02-04T10:23:04;1.73;;;0.60;;
1693;SDS011;844;47.058;15.472;2023-02-04T10:25:38;1.03;;;0.60;;
1693;SDS011;844;47.058;15.472;2023-02-04T10:28:11;2.10;;;0.50;;
1693;SDS011;844;47.058;15.472;2023-02-04T10:30:42;0.67;;;0.50;;
1693;SDS011;844;47.058;15.472;2023-02-04T10:33:14;0.60;;;0.40;;
1693;SDS011;844;47.058;15.472;2023-02-04T10:35:52;0.80;;;0.60;;
1693;SDS011;844;47.058;15.472;2023-02-04T10:38:24;0.60;;;0.40;;
1693;SDS011;844;47.058;15.472;2023-02-04T10:41:03;1.03;;;0.43;;
1693;SDS011;844;47.058;15.472;2023-02-04T10:43:36;1.47;;;0.60;;
1693;SDS011;844;47.058;15.472;2023-02-04T10:46:05;1.00;;;0.50;;
1693;SDS011;844;47.058;15.472;2023-02-04T10:48:38;1.27;;;0.50;;
1693;SDS011;844;47.058;15.472;2023-02-04T10:51:09;0.80;;;0.50;;
1693;SDS011;844;47.058;15.472;2023-02-04T10:53:43;0.77;;;0.53;;
1693;SDS011;844;47.058;15.472;2023-02-04T10:56:31;0.90;;;0.67;;
1693;SDS011;844;47.058;15.472;2023-02-04T10:59:04;0.90;;;0.47;;
1693;SDS011;844;47.058;15.472;2023-02-04T11:01:36;1.30;;;0.50;;
1693;SDS011;844;47.058;15.472;2023-02-04T11:04:08;1.00;;;0.63;;
1693;SDS011;844;47.058;15.472;2023-02-04T11:06:39;0.90;;;0.87;;
1693;SDS011;844;47.058;15.472;2023-02-04T11:09:15;0.90;;;0.80;;
1693;SDS011;844;47.058;15.472;2023-02-04T11:11:46;1.43;;;0.50;;
1693;SDS011;844;47.058;15.472;2023-02-04T11:14:22;4.00;;;0.70;;
1693;SDS011;844;47.058;15.472;2023-02-04T11:16:56;0.80;;;0.63;;
1693;SDS011;844;47.058;15.472;2023-02-04T11:19:30;1.23;;;0.63;;
1693;SDS011;844;47.058;15.472;2023-02-04T11:22:20;0.80;;;0.60;;
1693;SDS011;844;47.058;15.472;2023-02-04T11:24:55;0.90;;;0.57;;
1693;SDS011;844;47.058;15.472;2023-02-04T11:27:35;1.30;;;0.77;;
1693;SDS011;844;47.058;15.472;2023-02-04T11:30:19;0.70;;;0.60;;
1693;SDS011;844;47.058;15.472;2023-02-04T11:32:55;0.60;;;0.50;;
1693;SDS011;844;47.058;15.472;2023-02-04T11:35:30;1.00;;;0.77;;
1693;SDS011;844;47.058;15.472;2023-02-04T11:38:01;2.53;;;0.53;;
1693;SDS011;844;47.058;15.472;2023-02-04T11:40:32;0.80;;;0.60;;
1693;SDS011;844;47.058;15.472;2023-02-04T11:43:08;0.70;;;0.60;;
1693;SDS011;844;47.058;15.472;2023-02-04T11:45:41;0.97;;;0.60;;
1693;SDS011;844;47.058;15.472;2023-02-04T11:48:13;0.83;;;0.50;;
1693;SDS011;844;47.058;15.472;2023-02-04T11:50:53;3.13;;;0.80;;
1693;SDS011;844;47.058;15.472;2023-02-04T11:53:27;0.70;;;0.50;;
1693;SDS011;844;47.058;15.472;2023-02-04T11:55:59;1.73;;;0.70;;
1693;SDS011;844;47.058;15.472;2023-02-04T11:58:29;3.87;;;0.70;;
1693;SDS011;844;47.058;15.472;2023-02-04T12:01:01;1.80;;;0.57;;
1693;SDS011;844;47.058;15.472;2023-02-04T12:03:34;0.90;;;0.73;;
1693;SDS011;844;47.058;15.472;2023-02-04T12:06:21;0.97;;;0.57;;
1693;SDS011;844;47.058;15.472;2023-02-04T12:09:03;2.40;;;0.60;;
1693;SDS011;844;47.058;15.472;2023-02-04T12:11:33;1.27;;;0.50;;
1693;SDS011;844;47.058;15.472;2023-02-04T12:14:05;1.10;;;0.80;;
1693;SDS011;844;47.058;15.472;2023-02-04T12:16:41;0.70;;;0.60;;
1693;SDS011;844;47.058;15.472;2023-02-04T12:19:14;0.80;;;0.50;;
1693;SDS011;844;47.058;15.472;2023-02-04T12:21:44;1.17;;;0.73;;
1693;SDS011;844;47.058;15.472;2023-02-04T12:24:15;2.50;;;0.80;;
1693;SDS011;844;47.058;15.472;2023-02-04T12:26:45;0.70;;;0.60;;
1693;SDS011;844;47.058;15.472;2023-02-04T12:29:14;1.20;;;0.90;;
1693;SDS011;844;47.058;15.472;2023-02-04T12:31:46;0.80;;;0.50;;
1693;SDS011;844;47.058;15.472;2023-02-04T12:34:17;0.80;;;0.63;;
1693;SDS011;844;47.058;15.472;2023-02-04T12:36:47;0.90;;;0.73;;
1693;SDS011;844;47.058;15.472;2023-02-04T12:39:19;1.53;;;0.70;;
1693;SDS011;844;47.058;15.472;2023-02-04T12:41:50;0.60;;;0.50;;
1693;SDS011;844;47.058;15.472;2023-02-04T12:44:20;2.10;;;0.50;;
1693;SDS011;844;47.058;15.472;2023-02-04T12:46:54;1.33;;;0.63;;
1693;SDS011;844;47.058;15.472;2023-02-04T12:49:26;0.90;;;0.60;;
1693;SDS011;844;47.058;15.472;2023-02-04T12:51:56;0.70;;;0.60;;
1693;SDS011;844;47.058;15.472;2023-02-04T12:54:28;1.80;;;0.80;;
1693;SDS011;844;47.058;15.472;2023-02-04T12:56:59;1.00;;;0.90;;
1693;SDS011;844;47.058;15.472;2023-02-04T12:59:29;0.80;;;0.50;;
1693;SDS011;844;47.058;15.472;2023-02-04T13:02:03;1.03;;;0.50;;
1693;SDS011;844;47.058;15.472;2023-02-04T13:04:35;1.27;;;0.77;;
1693;SDS011;844;47.058;15.472;2023-02-04T13:07:05;1.30;;;0.80;;
1693;SDS011;844;47.058;15.472;2023-02-04T13:09:35;1.10;;;0.87;;
1693;SDS011;844;47.058;15.472;2023-02-04T13:12:05;1.13;;;0.97;;
1693;SDS011;844;47.058;15.472;2023-02-04T13:14:37;0.80;;;0.53;;
1693;SDS011;844;47.058;15.472;2023-02-04T13:17:08;0.70;;;0.60;;
1693;SDS011;844;47.058;15.472;2023-02-04T13:19:39;1.63;;;1.10;;
1693;SDS011;844;47.058;15.472;2023-02-04T13:22:09;0.77;;;0.70;;
1693;SDS011;844;47.058;15.472;2023-02-04T13:24:39;0.93;;;0.80;;
1693;SDS011;844;47.058;15.472;2023-02-04T13:27:13;1.00;;;0.70;;
1693;SDS011;844;47.058;15.472;2023-02-04T13:29:44;0.90;;;0.77;;
1693;SDS011;844;47.058;15.472;2023-02-04T13:32:16;1.00;;;0.60;;
1693;SDS011;844;47.058;15.472;2023-02-04T13:34:46;1.00;;;0.63;;
1693;SDS011;844;47.058;15.472;2023-02-04T13:37:17;0.97;;;0.50;;
1693;SDS011;844;47.058;15.472;2023-02-04T13:39:48;0.87;;;0.80;;
1693;SDS011;844;47.058;15.472;2023-02-04T13:42:17;0.70;;;0.70;;
1693;SDS011;844;47.058;15.472;2023-02-04T13:44:48;1.90;;;1.10;;
1693;SDS011;844;47.058;15.472;2023-02-04T13:47:22;0.90;;;0.70;;
1693;SDS011;844;47.058;15.472;2023-02-04T13:49:52;2.40;;;1.03;;
1693;SDS011;844;47.058;15.472;2023-02-04T13:52:22;1.60;;;0.80;;
1693;SDS011;844;47.058;15.472;2023-02-04T13:54:53;1.33;;;0.77;;
1693;SDS011;844;47.058;15.472;2023-02-04T13:57:23;1.30;;;0.80;;
1693;SDS011;844;47.058;15.472;2023-02-04T13:59:54;0.90;;;0.73;;
1693;SDS011;844;47.058;15.472;2023-02-04T14:02:27;2.03;;;0.67;;
1693;SDS011;844;47.058;15.472;2023-02-04T14:04:57;1.10;;;0.70;;
1693;SDS011;844;47.058;15.472;2023-02-04T14:07:27;0.70;;;0.50;;
1693;SDS011;844;47.058;15.472;2023-02-04T14:10:00;0.73;;;0.70;;
1693;SDS011;844;47.058;15.472;2023-02-04T14:12:30;1.23;;;0.90;;
1693;SDS011;844;47.058;15.472;2023-02-04T14:15:01;0.93;;;0.83;;
1693;SDS011;844;47.058;15.472;2023-02-04T14:17:33;2.00;;;0.93;;
1693;SDS011;844;47.058;15.472;2023-02-04T14:20:03;1.20;;;0.80;;
1693;SDS011;844;47.058;15.472;2023-02-04T14:22:34;1.20;;;0.90;;
1693;SDS011;844;47.058;15.472;2023-02-04T14:25:05;3.60;;;1.17;;
1693;SDS011;844;47.058;15.472;2023-02-04T14:27:36;1.93;;;0.77;;
1693;SDS011;844;47.058;15.472;2023-02-04T14:30:14;1.40;;;0.90;;
1693;SDS011;844;47.058;15.472;2023-02-04T14:32:47;1.27;;;1.17;;
1693;SDS011;844;47.058;15.472;2023-02-04T14:35:18;1.23;;;1.00;;
1693;SDS011;844;47.058;15.472;2023-02-04T14:37:52;2.97;;;1.97;;
1693;SDS011;844;47.058;15.472;2023-02-04T14:40:22;4.20;;;2.00;;
1693;SDS011;844;47.058;15.472;2023-02-04T14:42:52;0.97;;;0.80;;
1693;SDS011;844;47.058;15.472;2023-02-04T14:45:23;0.80;;;0.70;;
1693;SDS011;844;47.058;15.472;2023-02-04T14:47:54;0.83;;;0.80;;
1693;SDS011;844;47.058;15.472;2023-02-04T14:50:27;2.07;;;0.90;;
1693;SDS011;844;47.058;15.472;2023-02-04T14:52:58;1.20;;;0.80;;
1693;SDS011;844;47.058;15.472;2023-02-04T14:55:29;1.10;;;1.00;;
1693;SDS011;844;47.058;15.472;2023-02-04T14:58:02;1.30;;;1.10;;
1693;SDS011;844;47.058;15.472;2023-02-04T15:00:32;0.70;;;0.70;;
1693;SDS011;844;47.058;15.472;2023-02-04T15:03:04;1.17;;;1.07;;
1693;SDS011;844;47.058;15.472;2023-02-04T15:05:35;0.80;;;0.80;;
1693;SDS011;844;47.058;15.472;2023-02-04T15:08:06;1.63;;;1.23;;
1693;SDS011;844;47.058;15.472;2023-02-04T15:10:36;1.77;;;1.10;;
1693;SDS011;844;47.058;15.472;2023-02-04T15:13:08;1.00;;;0.90;;
1693;SDS011;844;47.058;15.472;2023-02-04T15:15:39;1.00;;;0.80;;
1693;SDS011;844;47.058;15.472;2023-02-04T15:18:10;0.97;;;0.80;;
1693;SDS011;844;47.058;15.472;2023-02-04T15:20:41;0.80;;;0.80;;
1693;SDS011;844;47.058;15.472;2023-02-04T15:23:10;2.63;;;2.43;;
1693;SDS011;844;47.058;15.472;2023-02-04T15:25:41;1.73;;;1.10;;
1693;SDS011;844;47.058;15.472;2023-02-04T15:28:11;1.47;;;0.97;;
1693;SDS011;844;47.058;15.472;2023-02-04T15:30:42;1.80;;;1.23;;
1693;SDS011;844;47.058;15.472;2023-02-04T15:33:15;2.30;;;1.03;;
1693;SDS011;844;47.058;15.472;2023-02-04T15:35:45;1.60;;;1.23;;
1693;SDS011;844;47.058;15.472;2023-02-04T15:38:15;1.50;;;1.03;;
1693;SDS011;844;47.058;15.472;2023-02-04T15:40:45;0.80;;;0.70;;